createdAt,value
2018-07-10T00:00:43.414Z,11.73
2018-07-10T00:03:24.487Z,9.47
2018-07-10T00:06:19.413Z,7.37
2018-07-10T00:09:02.889Z,11.43
2018-07-10T00:11:41.347Z,7.23
2018-07-10T00:14:11.314Z,10.37
2018-07-10T00:16:41.002Z,8.23
2018-07-10T00:19:10.782Z,7.17
2018-07-10T00:21:40.428Z,8.30
2018-07-10T00:24:08.536Z,7.93
2018-07-10T00:26:42.324Z,5.93
2018-07-10T00:29:20.085Z,10.07
2018-07-10T00:31:51.169Z,10.10
2018-07-10T00:34:20.140Z,4.63
2018-07-10T00:36:51.511Z,11.50
2018-07-10T00:39:21.317Z,7.40
2018-07-10T00:41:51.112Z,7.33
2018-07-10T00:44:20.850Z,6.83
2018-07-10T00:46:50.636Z,8.27
2018-07-10T00:49:20.407Z,8.33
2018-07-10T00:51:48.468Z,7.83
2018-07-10T00:54:20.451Z,4.93
2018-07-10T00:56:52.140Z,4.93
2018-07-10T00:59:20.173Z,4.80
2018-07-10T01:01:48.240Z,7.53
2018-07-10T01:04:16.302Z,6.57
2018-07-10T01:06:44.361Z,6.30
2018-07-10T01:09:20.215Z,6.40
2018-07-10T01:11:48.263Z,10.47
2018-07-10T01:14:22.720Z,12.03
2018-07-10T01:17:00.434Z,12.97
2018-07-10T01:19:31.524Z,7.00
2018-07-10T01:22:01.114Z,7.70
2018-07-10T01:24:30.804Z,7.43
2018-07-10T01:26:58.863Z,7.27
2018-07-10T01:29:32.545Z,6.90
2018-07-10T01:32:10.630Z,8.63
2018-07-10T01:34:40.485Z,6.33
2018-07-10T01:37:08.516Z,8.30
2018-07-10T01:39:36.581Z,8.10
2018-07-10T01:42:10.292Z,8.23
2018-07-10T01:44:41.505Z,7.17
2018-07-10T01:47:11.220Z,7.63
2018-07-10T01:49:40.883Z,7.70
2018-07-10T01:52:08.930Z,5.13
2018-07-10T01:54:36.970Z,7.47
2018-07-10T01:57:05.110Z,11.50
2018-07-10T01:59:39.839Z,8.83
2018-07-10T02:02:07.898Z,9.77
2018-07-10T02:04:42.108Z,11.00
2018-07-10T02:07:10.139Z,9.13
2018-07-10T02:09:41.748Z,8.87
2018-07-10T02:12:09.777Z,9.70
2018-07-10T02:14:41.057Z,10.37
2018-07-10T02:17:10.742Z,6.63
2018-07-10T02:19:38.834Z,7.87
2018-07-10T02:22:12.484Z,9.07
2018-07-10T02:24:50.220Z,9.50
2018-07-10T02:27:18.242Z,8.83
2018-07-10T02:29:52.717Z,10.97
2018-07-10T02:32:30.483Z,9.93
2018-07-10T02:34:58.552Z,8.47
2018-07-10T02:37:31.238Z,10.53
2018-07-10T02:40:00.640Z,11.07
2018-07-10T02:42:29.748Z,7.47
2018-07-10T02:44:57.612Z,9.50
2018-07-10T02:47:27.741Z,9.30
2018-07-10T02:50:01.621Z,6.77
2018-07-10T02:52:33.632Z,5.93
2018-07-10T02:55:01.659Z,6.70
2018-07-10T02:57:29.718Z,7.23
2018-07-10T02:59:58.361Z,8.53
2018-07-10T03:02:27.633Z,8.13
2018-07-10T03:05:03.777Z,5.27
2018-07-10T03:07:33.109Z,7.60
2018-07-10T03:10:11.133Z,7.47
2018-07-10T03:12:40.353Z,8.20
2018-07-10T03:15:11.324Z,8.93
2018-07-10T03:17:39.436Z,8.10
2018-07-10T03:20:08.193Z,7.73
2018-07-10T03:22:41.876Z,9.37
2018-07-10T03:25:10.031Z,10.47
2018-07-10T03:27:42.074Z,7.03
2018-07-10T03:30:10.688Z,7.47
2018-07-10T03:32:38.753Z,9.43
2018-07-10T03:35:06.837Z,6.03
2018-07-10T03:37:34.878Z,9.07
2018-07-10T03:40:03.273Z,7.73
2018-07-10T03:42:41.632Z,8.17
2018-07-10T03:45:11.977Z,6.40
2018-07-10T03:47:40.528Z,7.30
2018-07-10T03:50:08.582Z,8.10
2018-07-10T03:52:43.194Z,12.63
2018-07-10T03:55:20.797Z,7.43
2018-07-10T03:57:57.241Z,8.97
2018-07-10T04:00:26.064Z,6.23
2018-07-10T04:03:00.908Z,11.60
2018-07-10T04:05:29.299Z,10.20
2018-07-10T04:07:57.909Z,9.13
2018-07-10T04:10:33.753Z,10.47
2018-07-10T04:13:13.437Z,10.07
2018-07-10T04:15:54.725Z,9.77
2018-07-10T04:18:32.133Z,11.40
2018-07-10T04:21:25.035Z,9.77
2018-07-10T04:24:00.593Z,15.53
2018-07-10T04:26:34.426Z,7.30
2018-07-10T04:29:37.802Z,9.10
2018-07-10T04:32:12.631Z,11.30
2018-07-10T04:34:41.320Z,25.00
2018-07-10T04:37:12.742Z,49.30
2018-07-10T04:39:41.956Z,29.63
2018-07-10T04:42:18.055Z,24.47
2018-07-10T04:44:51.047Z,16.63
2018-07-10T04:47:24.883Z,13.80
2018-07-10T04:49:58.458Z,18.23
2018-07-10T04:52:29.332Z,10.77
2018-07-10T04:55:09.203Z,11.20
2018-07-10T04:57:45.964Z,12.70
2018-07-10T05:00:19.872Z,14.50
2018-07-10T05:02:53.732Z,17.50
2018-07-10T05:05:31.998Z,11.80
2018-07-10T05:08:02.729Z,10.30
2018-07-10T05:10:40.401Z,6.33
2018-07-10T05:13:08.482Z,8.83
2018-07-10T05:15:38.440Z,6.63
2018-07-10T05:18:12.801Z,7.43
2018-07-10T05:20:50.424Z,10.23
2018-07-10T05:23:20.426Z,7.83
2018-07-10T05:25:54.288Z,5.90
2018-07-10T05:28:22.349Z,9.33
2018-07-10T05:30:50.447Z,7.27
2018-07-10T05:33:22.565Z,8.10
2018-07-10T05:35:51.493Z,10.03
2018-07-10T05:38:24.794Z,10.50
2018-07-10T05:40:59.949Z,5.30
2018-07-10T05:43:28.102Z,10.13
2018-07-10T05:46:02.126Z,7.87
2018-07-10T05:48:31.320Z,4.92
2018-07-10T05:50:59.489Z,6.95
2018-07-10T05:53:31.457Z,7.40
2018-07-10T05:56:00.976Z,5.50
2018-07-10T05:58:29.111Z,7.50
2018-07-10T06:00:57.227Z,10.45
2018-07-10T06:03:25.317Z,7.60
2018-07-10T06:05:54.596Z,4.97
2018-07-10T06:08:30.650Z,7.20
2018-07-10T06:10:58.799Z,8.33
2018-07-10T06:13:26.901Z,7.83
2018-07-10T06:16:01.326Z,6.13
2018-07-10T06:18:29.544Z,6.07
2018-07-10T06:20:57.673Z,10.87
2018-07-10T06:23:35.589Z,5.20
2018-07-10T06:26:03.748Z,10.17
2018-07-10T06:28:46.463Z,7.03
2018-07-10T06:31:21.279Z,7.50
2018-07-10T06:33:56.094Z,11.50
2018-07-10T06:36:31.699Z,8.30
2018-07-10T06:39:08.895Z,9.47
2018-07-10T06:41:44.649Z,6.03
2018-07-10T06:44:21.206Z,7.67
2018-07-10T06:46:54.026Z,5.27
2018-07-10T06:49:35.102Z,6.70
2018-07-10T06:52:12.568Z,8.40
2018-07-10T06:54:52.351Z,8.70
2018-07-10T06:57:28.611Z,9.07
2018-07-10T06:59:57.473Z,7.27
2018-07-10T07:02:32.869Z,6.93
2018-07-10T07:05:10.414Z,8.60
2018-07-10T07:07:39.499Z,10.07
2018-07-10T07:10:09.362Z,6.12
2018-07-10T07:12:38.193Z,7.80
2018-07-10T07:15:08.351Z,8.63
2018-07-10T07:17:39.625Z,4.22
2018-07-10T07:20:11.008Z,9.53
2018-07-10T07:22:39.118Z,7.25
2018-07-10T07:25:07.478Z,4.08
2018-07-10T07:27:42.465Z,4.83
2018-07-10T07:30:20.482Z,10.75
2018-07-10T07:32:49.132Z,6.03
2018-07-10T07:35:17.252Z,5.75
2018-07-10T07:37:45.334Z,6.63
2018-07-10T07:40:21.005Z,9.37
2018-07-10T07:42:49.064Z,7.73
2018-07-10T07:45:17.135Z,9.07
2018-07-10T07:47:51.044Z,5.60
2018-07-10T07:50:20.033Z,7.63
2018-07-10T07:52:48.384Z,6.30
2018-07-10T07:55:22.775Z,26.37
2018-07-10T07:57:50.845Z,4.97
2018-07-10T08:00:19.011Z,5.47
2018-07-10T08:02:50.849Z,7.80
2018-07-10T08:05:18.743Z,8.63
2018-07-10T08:07:52.634Z,7.97
2018-07-10T08:10:30.334Z,8.60
2018-07-10T08:12:58.461Z,6.00
2018-07-10T08:15:32.494Z,4.20
2018-07-10T08:18:10.040Z,4.53
2018-07-10T08:20:38.163Z,4.07
2018-07-10T08:23:06.337Z,4.93
2018-07-10T08:25:34.438Z,4.27
2018-07-10T08:28:10.727Z,6.60
2018-07-10T08:30:38.767Z,5.40
2018-07-10T08:33:06.909Z,5.97
2018-07-10T08:35:35.041Z,3.90
2018-07-10T08:38:03.089Z,4.00
2018-07-10T08:40:41.614Z,5.17
2018-07-10T08:43:10.941Z,5.37
2018-07-10T08:45:39.103Z,3.90
2018-07-10T08:48:12.786Z,5.73
2018-07-10T08:50:40.928Z,7.23
2018-07-10T08:53:12.469Z,3.73
2018-07-10T08:55:50.460Z,4.80
2018-07-10T08:58:18.892Z,6.20
2018-07-10T09:03:40.005Z,6.47
2018-07-10T09:06:11.449Z,3.98
2018-07-10T09:08:39.542Z,6.17
2018-07-10T09:11:11.006Z,5.00
2018-07-10T09:13:40.674Z,3.37
2018-07-10T09:16:08.874Z,5.65
2018-07-10T09:18:40.980Z,4.50
2018-07-10T09:21:12.509Z,4.25
2018-07-10T09:23:50.730Z,3.95
2018-07-10T09:26:18.845Z,3.85
2018-07-10T09:28:46.925Z,5.35
2018-07-10T09:31:20.829Z,3.85
2018-07-10T09:33:48.904Z,3.40
2018-07-10T09:36:20.674Z,3.62
2018-07-10T09:38:48.941Z,6.13
2018-07-10T09:41:20.961Z,2.45
2018-07-10T09:43:50.689Z,3.83
2018-07-10T09:46:18.818Z,6.37
2018-07-10T09:48:50.804Z,2.00
2018-07-10T09:51:18.890Z,5.87
2018-07-10T09:53:52.640Z,5.50
2018-07-10T09:56:20.696Z,5.13
2018-07-10T09:58:54.152Z,3.53
2018-07-10T10:01:26.629Z,3.50
2018-07-10T10:04:00.758Z,4.87
2018-07-10T10:06:32.645Z,3.10
2018-07-10T10:09:00.765Z,5.83
2018-07-10T10:11:32.528Z,4.90
2018-07-10T10:14:10.690Z,7.57
2018-07-10T10:16:38.797Z,3.30
2018-07-10T10:19:10.716Z,5.97
2018-07-10T10:21:38.800Z,3.33
2018-07-10T10:24:12.645Z,3.73
2018-07-10T10:26:50.351Z,5.73
2018-07-10T10:29:18.445Z,8.60
2018-07-10T10:31:46.525Z,4.97
2018-07-10T10:34:14.612Z,3.70
2018-07-10T10:36:42.652Z,3.97
2018-07-10T10:42:10.593Z,5.83
2018-07-10T10:44:38.665Z,3.37
2018-07-10T10:47:06.802Z,21.73
2018-07-10T10:49:40.389Z,4.10
2018-07-10T10:52:08.478Z,2.80
2018-07-10T10:54:36.582Z,3.58
2018-07-10T10:57:10.180Z,1.98
2018-07-10T10:59:38.270Z,2.37
2018-07-10T11:02:13.079Z,4.33
2018-07-10T11:04:41.365Z,2.70
2018-07-10T11:07:10.492Z,1.42
2018-07-10T11:09:38.634Z,7.03
2018-07-10T11:12:10.614Z,4.45
2018-07-10T11:14:44.156Z,2.67
2018-07-10T11:17:21.084Z,2.65
2018-07-10T11:19:55.165Z,2.67
2018-07-10T11:22:30.201Z,4.28
2018-07-10T11:25:03.786Z,3.10
2018-07-10T11:27:36.214Z,2.27
2018-07-10T11:30:04.097Z,3.12
2018-07-10T11:32:41.985Z,2.58
2018-07-10T11:35:11.188Z,3.42
2018-07-10T11:37:40.852Z,3.50
2018-07-10T11:40:13.449Z,1.80
2018-07-10T11:42:42.868Z,5.95
2018-07-10T11:45:10.935Z,7.25
2018-07-10T11:47:40.657Z,6.40
2018-07-10T11:50:08.761Z,5.15
2018-07-10T11:52:37.519Z,3.17
2018-07-10T11:55:05.696Z,3.45
2018-07-10T11:57:40.964Z,16.42
2018-07-10T12:00:09.073Z,5.60
2018-07-10T12:02:43.717Z,2.45
2018-07-10T12:05:22.045Z,4.65
2018-07-10T12:07:53.693Z,2.17
2018-07-10T12:10:31.374Z,3.92
2018-07-10T12:12:59.453Z,3.83
2018-07-10T12:15:27.503Z,3.50
2018-07-10T12:17:56.846Z,4.62
2018-07-10T12:20:34.470Z,6.25
2018-07-10T12:23:04.366Z,6.10
2018-07-10T12:25:41.620Z,3.98
2018-07-10T12:28:10.824Z,5.80
2018-07-10T12:33:41.897Z,3.75
2018-07-10T12:36:10.019Z,3.98
2018-07-10T12:38:38.080Z,5.90
2018-07-10T12:41:06.198Z,5.12
2018-07-10T12:43:40.478Z,7.30
2018-07-10T12:46:11.948Z,4.28
2018-07-10T12:48:40.095Z,3.87
2018-07-10T12:51:08.236Z,6.08
2018-07-10T12:53:37.864Z,5.00
2018-07-10T12:56:12.052Z,4.87
2018-07-10T12:58:40.663Z,5.50
2018-07-10T13:01:09.113Z,4.92
2018-07-10T13:03:43.114Z,7.40
2018-07-10T13:06:11.352Z,8.58
2018-07-10T13:08:39.514Z,5.90
2018-07-10T13:11:07.625Z,9.43
2018-07-10T13:13:41.467Z,5.62
2018-07-10T13:16:09.573Z,5.65
2018-07-10T13:18:37.726Z,5.30
2018-07-10T13:21:05.854Z,6.15
2018-07-10T13:23:40.844Z,10.95
2018-07-10T13:26:10.838Z,6.28
2018-07-10T13:28:40.741Z,5.53
2018-07-10T13:31:12.522Z,7.42
2018-07-10T13:33:49.942Z,6.70
2018-07-10T13:36:21.734Z,7.20
2018-07-10T13:38:51.558Z,8.13
2018-07-10T13:41:21.040Z,11.63
2018-07-10T13:43:50.852Z,7.20
2018-07-10T13:46:19.000Z,6.03
2018-07-10T13:48:52.548Z,3.55
2018-07-10T13:51:20.664Z,8.13
2018-07-10T13:53:52.315Z,6.95
2018-07-10T13:56:20.888Z,6.30
2018-07-10T13:58:50.767Z,7.03
2018-07-10T14:01:19.763Z,6.55
2018-07-10T14:03:47.961Z,9.05
2018-07-10T14:06:16.009Z,7.22
2018-07-10T14:08:50.898Z,6.10
2018-07-10T14:11:19.055Z,9.03
2018-07-10T14:13:47.152Z,9.25
2018-07-10T14:16:15.219Z,6.50
2018-07-10T14:18:51.673Z,6.85
2018-07-10T14:21:21.833Z,11.97
2018-07-10T14:23:50.539Z,5.08
2018-07-10T14:26:22.238Z,9.78
2018-07-10T14:28:50.396Z,6.83
2018-07-10T14:31:21.854Z,9.53
2018-07-10T14:33:51.384Z,9.00
2018-07-10T14:36:20.922Z,9.13
2018-07-10T14:38:52.423Z,5.22
2018-07-10T14:41:21.752Z,5.70
2018-07-10T14:43:49.812Z,7.33
2018-07-10T14:46:22.510Z,10.73
2018-07-10T14:49:01.416Z,9.13
2018-07-10T14:51:40.334Z,9.17
2018-07-10T14:54:08.700Z,6.80
2018-07-10T14:56:36.878Z,9.43
2018-07-10T14:59:05.388Z,10.27
2018-07-10T15:01:41.417Z,10.63
2018-07-10T15:04:09.781Z,7.77
2018-07-10T15:06:38.053Z,10.53
2018-07-10T15:09:12.334Z,12.77
2018-07-10T15:11:41.469Z,6.83
2018-07-10T15:14:11.297Z,9.40
2018-07-10T15:16:44.940Z,7.20
2018-07-10T15:19:13.224Z,10.70
2018-07-10T15:21:51.569Z,7.53
2018-07-10T15:24:19.663Z,10.00
2018-07-10T15:26:47.818Z,10.30
2018-07-10T15:29:26.985Z,6.63
2018-07-10T15:31:55.166Z,9.07
2018-07-10T15:34:23.280Z,8.37
2018-07-10T15:36:51.387Z,36.43
2018-07-10T15:39:21.110Z,13.57
2018-07-10T15:41:50.241Z,11.70
2018-07-10T15:44:18.261Z,11.03
2018-07-10T15:46:52.384Z,8.57
2018-07-10T15:49:22.279Z,9.43
2018-07-10T15:51:50.939Z,7.53
2018-07-10T15:54:19.057Z,10.90
2018-07-10T15:56:52.618Z,6.47
2018-07-10T15:59:30.238Z,8.17
2018-07-10T16:02:01.532Z,11.07
2018-07-10T16:04:32.010Z,8.03
2018-07-10T16:07:01.655Z,7.40
2018-07-10T16:09:30.061Z,11.23
2018-07-10T16:12:03.477Z,11.23
2018-07-10T16:14:31.685Z,13.37
2018-07-10T16:17:05.474Z,9.87
2018-07-10T16:19:38.192Z,12.93
2018-07-10T16:22:18.753Z,7.57
2018-07-10T16:24:49.887Z,7.40
2018-07-10T16:27:19.492Z,9.87
2018-07-10T16:29:48.048Z,12.03
2018-07-10T16:32:16.775Z,10.60
2018-07-10T16:34:44.833Z,9.10
2018-07-10T16:37:21.121Z,8.37
2018-07-10T16:39:49.219Z,9.70
2018-07-10T16:42:22.850Z,13.67
2018-07-10T16:44:51.511Z,10.30
2018-07-10T16:47:25.605Z,14.27
2018-07-10T16:50:02.986Z,8.10
2018-07-10T16:52:59.625Z,10.93
2018-07-10T16:55:31.477Z,8.50
2018-07-10T16:57:59.552Z,10.37
2018-07-10T17:00:30.931Z,9.73
2018-07-10T17:02:59.917Z,15.07
2018-07-10T17:08:20.542Z,15.83
2018-07-10T17:10:48.721Z,9.80
2018-07-10T17:13:16.868Z,12.80
2018-07-10T17:15:51.788Z,14.00
2018-07-10T17:18:21.693Z,11.97
2018-07-10T17:20:51.098Z,10.53
2018-07-10T17:23:19.181Z,14.10
2018-07-10T17:25:53.558Z,11.87
2018-07-10T17:28:31.989Z,8.63
2018-07-10T17:31:02.107Z,6.60
2018-07-10T17:33:30.228Z,6.23
2018-07-10T17:36:01.447Z,11.10
2018-07-10T17:38:31.965Z,9.77
2018-07-10T17:41:00.758Z,10.07
2018-07-10T17:43:28.845Z,10.67
2018-07-10T17:46:02.464Z,15.37
2018-07-10T17:48:30.525Z,12.40
2018-07-10T17:51:02.249Z,9.20
2018-07-10T17:53:30.345Z,11.27
2018-07-10T17:55:58.428Z,10.13
2018-07-10T17:58:28.009Z,9.93
2018-07-10T18:00:56.228Z,11.83
2018-07-10T18:03:24.331Z,12.40
2018-07-10T18:06:02.005Z,17.60
2018-07-10T18:08:30.086Z,11.23
2018-07-10T18:10:58.201Z,14.27
2018-07-10T18:13:26.251Z,11.53
2018-07-10T18:15:54.333Z,11.63
2018-07-10T18:18:30.596Z,16.77
2018-07-10T18:21:01.928Z,39.70
2018-07-10T18:23:30.055Z,32.93
2018-07-10T18:26:01.620Z,25.83
2018-07-10T18:28:31.175Z,25.17
2018-07-10T18:31:00.914Z,23.87
2018-07-10T18:33:29.214Z,23.30
2018-07-10T18:35:57.265Z,19.83
2018-07-10T18:38:25.360Z,21.90
2018-07-10T18:41:00.454Z,21.87
2018-07-10T18:43:28.507Z,25.70
2018-07-10T18:45:56.568Z,14.93
2018-07-10T18:48:26.193Z,11.80
2018-07-10T18:50:54.793Z,10.07
2018-07-10T18:53:30.339Z,11.77
2018-07-10T18:55:58.452Z,11.73
2018-07-10T18:58:37.453Z,10.87
2018-07-10T19:02:14.684Z,5.80
2018-07-10T19:05:02.250Z,7.67
2018-07-10T19:07:30.377Z,11.20
2018-07-10T19:10:01.846Z,9.30
2018-07-10T19:12:31.420Z,6.60
2018-07-10T19:14:59.741Z,8.53
2018-07-10T19:17:30.669Z,9.70
2018-07-10T19:20:04.824Z,7.80
2018-07-10T19:22:47.660Z,6.47
2018-07-10T19:25:16.151Z,7.40
2018-07-10T19:27:45.782Z,6.27
2018-07-10T19:30:21.200Z,7.93
2018-07-10T19:32:49.251Z,5.97
2018-07-10T19:35:17.309Z,8.63
2018-07-10T19:37:45.432Z,12.07
2018-07-10T19:40:13.542Z,9.57
2018-07-10T19:42:41.617Z,15.53
2018-07-10T19:45:09.669Z,18.37
2018-07-10T19:47:37.734Z,10.23
2018-07-10T19:50:16.707Z,7.43
2018-07-10T19:52:50.157Z,12.27
2018-07-10T19:55:18.229Z,20.00
2018-07-10T19:57:57.374Z,15.70
2018-07-10T20:00:33.857Z,10.03
2018-07-10T20:03:19.311Z,7.27
2018-07-10T20:05:46.134Z,7.00
2018-07-10T20:08:15.880Z,4.87
2018-07-10T20:10:56.502Z,11.07
2018-07-10T20:13:33.913Z,7.57
2018-07-10T20:16:11.722Z,10.63
2018-07-10T20:20:54.041Z,14.10
2018-07-10T20:23:42.936Z,12.37
2018-07-10T20:26:26.579Z,9.10
2018-07-10T20:29:06.387Z,9.73
2018-07-10T20:31:41.590Z,6.13
2018-07-10T20:34:21.341Z,7.87
2018-07-10T20:36:53.674Z,9.30
2018-07-10T20:39:26.784Z,7.47
2018-07-10T20:42:02.157Z,10.70
2018-07-10T20:44:32.174Z,8.60
2018-07-10T20:47:03.296Z,5.37
2018-07-10T20:49:43.441Z,7.17
2018-07-10T20:52:11.645Z,10.93
2018-07-10T20:54:48.532Z,7.63
2018-07-10T20:57:27.870Z,9.00
2018-07-10T21:00:03.377Z,9.53
2018-07-10T21:02:38.753Z,9.93
2018-07-10T21:05:09.780Z,9.53
2018-07-10T21:07:54.017Z,6.30
2018-07-10T21:10:33.993Z,8.63
2018-07-10T21:13:07.033Z,10.67
2018-07-10T21:15:47.152Z,12.13
2018-07-10T21:19:29.633Z,10.83
2018-07-10T21:22:09.714Z,9.93
2018-07-10T21:24:45.838Z,16.23
2018-07-10T21:27:23.954Z,18.77
2018-07-10T21:30:02.874Z,14.10
2018-07-10T21:32:44.253Z,11.30
2018-07-10T21:35:21.196Z,15.47
2018-07-10T21:38:02.013Z,11.33
2018-07-10T21:40:40.757Z,16.13
2018-07-10T21:43:19.364Z,11.63
2018-07-10T21:46:07.705Z,9.80
2018-07-10T21:48:46.731Z,13.50
2018-07-10T21:51:14.773Z,10.03
2018-07-10T21:53:51.040Z,11.40
2018-07-10T21:56:19.118Z,13.20
2018-07-10T21:58:48.233Z,9.60
2018-07-10T22:01:52.474Z,12.03
2018-07-10T22:04:22.948Z,9.70
2018-07-10T22:07:01.995Z,14.50
2018-07-10T22:12:22.311Z,14.80
2018-07-10T22:14:50.348Z,12.47
2018-07-10T22:17:20.533Z,10.70
2018-07-10T22:19:49.252Z,10.53
2018-07-10T22:22:24.298Z,7.10
2018-07-10T22:25:02.515Z,15.90
2018-07-10T22:27:31.557Z,11.13
2018-07-10T22:30:06.765Z,11.03
2018-07-10T22:32:45.892Z,9.73
2018-07-10T22:35:20.195Z,13.87
2018-07-10T22:37:48.258Z,13.80
2018-07-10T22:40:17.539Z,12.27
2018-07-10T22:42:45.708Z,13.07
2018-07-10T22:45:20.172Z,10.50
2018-07-10T22:47:48.221Z,10.27
2018-07-10T22:50:23.179Z,9.80
2018-07-10T22:53:01.443Z,12.73
2018-07-10T22:55:32.533Z,8.97
2018-07-10T22:58:06.315Z,12.57
2018-07-10T23:00:40.522Z,14.97
2018-07-10T23:03:22.462Z,10.20
2018-07-10T23:06:00.261Z,13.97
2018-07-10T23:08:32.901Z,11.57
2018-07-10T23:11:02.334Z,11.10
2018-07-10T23:13:32.392Z,10.13
2018-07-10T23:16:01.088Z,12.73
2018-07-10T23:18:30.698Z,14.87
2018-07-10T23:21:03.171Z,13.93
2018-07-10T23:23:41.902Z,14.37
2018-07-10T23:26:11.596Z,18.17
2018-07-10T23:28:41.349Z,13.50
2018-07-10T23:31:13.812Z,16.40
2018-07-10T23:33:54.373Z,17.90
2018-07-10T23:36:30.487Z,21.37
2018-07-10T23:39:11.278Z,18.87
2018-07-10T23:42:49.097Z,23.33
2018-07-10T23:45:25.909Z,21.40
2018-07-10T23:47:54.816Z,21.37
2018-07-10T23:50:30.584Z,23.03
2018-07-10T23:54:02.679Z,26.30
2018-07-10T23:56:41.497Z,21.67
2018-07-10T23:59:11.317Z,33.40
